createdAt,value
2022-11-07T00:03:20.690Z,-72
2022-11-07T00:08:32.042Z,-72
2022-11-07T00:13:34.206Z,-74
2022-11-07T00:18:36.536Z,-73
2022-11-07T00:23:41.431Z,-76
2022-11-07T00:28:43.997Z,-73
2022-11-07T00:33:46.116Z,-74
2022-11-07T00:38:48.316Z,-72
2022-11-07T00:43:50.181Z,-73
2022-11-07T00:48:52.551Z,-73
2022-11-07T00:53:54.916Z,-75
2022-11-07T00:58:58.553Z,-67
2022-11-07T01:04:18.953Z,-67
2022-11-07T01:09:22.101Z,-67
2022-11-07T01:14:24.171Z,-67
2022-11-07T01:19:26.075Z,-70
2022-11-07T01:24:28.175Z,-67
2022-11-07T01:29:30.178Z,-67
2022-11-07T01:34:32.226Z,-73
2022-11-07T01:39:34.132Z,-73
2022-11-07T01:44:42.313Z,-69
2022-11-07T01:49:44.597Z,-67
2022-11-07T01:55:09.746Z,-74
2022-11-07T02:00:15.281Z,-74
2022-11-07T02:05:32.688Z,-73
2022-11-07T02:10:35.125Z,-74
2022-11-07T02:15:37.225Z,-74
2022-11-07T02:20:39.264Z,-75
2022-11-07T02:25:41.420Z,-73
2022-11-07T02:30:43.450Z,-74
2022-11-07T02:35:47.638Z,-73
2022-11-07T02:40:58.612Z,-74
2022-11-07T02:46:03.943Z,-74
2022-11-07T02:51:06.422Z,-73
2022-11-07T02:56:09.363Z,-73
2022-11-07T03:01:12.487Z,-73
2022-11-07T03:06:17.124Z,-70
2022-11-07T03:11:22.332Z,-70
2022-11-07T03:16:24.230Z,-67
2022-11-07T03:21:26.095Z,-68
2022-11-07T03:26:28.027Z,-70
2022-11-07T03:31:29.915Z,-68
2022-11-07T03:36:31.991Z,-67
2022-11-07T03:41:33.854Z,-67
2022-11-07T03:46:35.719Z,-67
2022-11-07T03:51:37.839Z,-70
2022-11-07T03:56:39.945Z,-71
2022-11-07T04:01:42.011Z,-67
2022-11-07T04:06:44.284Z,-67
2022-11-07T04:12:04.721Z,-70
2022-11-07T04:17:20.304Z,-68
2022-11-07T04:22:26.528Z,-73
2022-11-07T04:27:43.371Z,-67
2022-11-07T04:32:56.590Z,-68
2022-11-07T04:37:59.683Z,-71
2022-11-07T04:43:03.379Z,-69
2022-11-07T04:48:05.595Z,-74
2022-11-07T04:53:07.701Z,-73
2022-11-07T04:58:10.388Z,-74
2022-11-07T05:03:12.869Z,-74
2022-11-07T05:08:15.106Z,-67
2022-11-07T05:13:18.523Z,-69
2022-11-07T05:18:21.248Z,-67
2022-11-07T05:23:23.155Z,-67
2022-11-07T05:28:38.372Z,-69
2022-11-07T05:33:41.699Z,-66
2022-11-07T05:38:45.899Z,-68
2022-11-07T05:43:48.204Z,-70
2022-11-07T05:48:53.462Z,-70
2022-11-07T05:53:57.591Z,-70
2022-11-07T05:58:59.597Z,-67
2022-11-07T06:04:04.137Z,-69
2022-11-07T06:09:06.271Z,-69
2022-11-07T06:14:08.407Z,-76
2022-11-07T06:19:10.248Z,-73
2022-11-07T06:24:15.236Z,-74
2022-11-07T06:29:17.654Z,-76
2022-11-07T06:34:19.667Z,-67
2022-11-07T06:39:22.148Z,-71
2022-11-07T06:44:24.052Z,-71
2022-11-07T06:49:25.911Z,-69
2022-11-07T06:54:27.998Z,-67
2022-11-07T06:59:29.849Z,-72
2022-11-07T07:04:31.874Z,-69
2022-11-07T07:09:33.779Z,-72
2022-11-07T07:14:36.011Z,-72
2022-11-07T07:19:37.905Z,-70
2022-11-07T07:24:39.996Z,-70
2022-11-07T07:29:41.848Z,-69
2022-11-07T07:53:09.011Z,-68
2022-11-07T07:58:12.193Z,-69
2022-11-07T08:03:14.541Z,-70
2022-11-07T08:08:16.900Z,-66
2022-11-07T08:13:19.159Z,-69
2022-11-07T08:18:22.592Z,-70
2022-11-07T08:23:24.868Z,-68
2022-11-07T08:28:29.954Z,-66
2022-11-07T08:33:32.632Z,-71
2022-11-07T08:38:35.882Z,-67
2022-11-07T08:43:37.804Z,-71
2022-11-07T08:48:40.538Z,-72
2022-11-07T08:53:48.677Z,-67
2022-11-07T08:58:55.875Z,-66
2022-11-07T09:03:58.712Z,-66
2022-11-07T09:09:01.603Z,-69
2022-11-07T09:14:03.664Z,-67
2022-11-07T09:19:05.765Z,-71
2022-11-07T09:24:08.361Z,-65
2022-11-07T09:29:10.450Z,-66
2022-11-07T09:34:12.660Z,-66
2022-11-07T09:39:14.738Z,-66
2022-11-07T09:44:55.087Z,-68
2022-11-07T09:50:01.587Z,-68
2022-11-07T09:55:27.881Z,-68
2022-11-07T10:00:31.908Z,-66
2022-11-07T10:06:01.585Z,-64
2022-11-07T10:11:12.891Z,-66
2022-11-07T10:16:24.437Z,-65
2022-11-07T10:21:43.715Z,-64
2022-11-07T10:26:45.826Z,-67
2022-11-07T10:31:57.055Z,-66
2022-11-07T10:36:59.055Z,-66
2022-11-07T10:42:08.656Z,-66
2022-11-07T10:47:24.621Z,-65
2022-11-07T10:52:28.533Z,-64
2022-11-07T10:57:30.609Z,-66
2022-11-07T11:02:48.376Z,-66
2022-11-07T11:07:50.644Z,-66
2022-11-07T11:12:52.684Z,-65
2022-11-07T11:18:05.618Z,-65
2022-11-07T11:23:19.255Z,-66
2022-11-07T11:28:28.027Z,-66
2022-11-07T11:33:44.809Z,-66
2022-11-07T11:39:00.576Z,-67
2022-11-07T11:44:26.596Z,-66
2022-11-07T11:49:30.858Z,-66
2022-11-07T11:54:34.436Z,-66
2022-11-07T11:59:42.536Z,-65
2022-11-07T12:05:06.504Z,-66
2022-11-07T12:10:13.291Z,-65
2022-11-07T12:15:41.675Z,-66
2022-11-07T12:21:01.939Z,-67
2022-11-07T12:26:11.948Z,-66
2022-11-07T12:31:40.150Z,-66
2022-11-07T12:37:16.483Z,-64
2022-11-07T12:42:39.503Z,-67
2022-11-07T12:47:47.283Z,-67
2022-11-07T12:53:20.549Z,-65
2022-11-07T12:58:25.713Z,-65
2022-11-07T13:04:10.611Z,-65
2022-11-07T13:09:19.887Z,-65
2022-11-07T13:14:37.109Z,-66
2022-11-07T13:20:05.803Z,-65
2022-11-07T13:25:17.394Z,-65
2022-11-07T13:30:22.281Z,-66
2022-11-07T13:35:54.070Z,-66
2022-11-07T13:41:07.589Z,-65
2022-11-07T13:46:18.089Z,-65
2022-11-07T13:51:33.380Z,-65
2022-11-07T13:56:38.709Z,-65
2022-11-07T14:01:45.388Z,-65
2022-11-07T14:06:49.354Z,-65
2022-11-07T14:11:53.440Z,-65
2022-11-07T14:17:00.664Z,-66
2022-11-07T14:22:02.711Z,-66
2022-11-07T14:27:13.741Z,-64
2022-11-07T14:32:16.889Z,-69
2022-11-07T14:37:24.843Z,-66
2022-11-07T14:42:27.006Z,-66
2022-11-07T14:47:32.403Z,-67
2022-11-07T14:52:49.727Z,-66
2022-11-07T14:57:52.492Z,-67
2022-11-07T15:02:57.107Z,-68
2022-11-07T15:07:59.948Z,-68
2022-11-07T15:13:05.428Z,-67
2022-11-07T15:18:07.707Z,-68
2022-11-07T15:23:12.560Z,-68
2022-11-07T15:28:17.778Z,-68
2022-11-07T15:33:22.612Z,-67
2022-11-07T15:38:27.129Z,-69
2022-11-07T15:43:29.225Z,-67
2022-11-07T15:48:40.904Z,-67
2022-11-07T15:53:43.589Z,-67
2022-11-07T15:58:45.711Z,-66
2022-11-07T16:03:47.760Z,-65
2022-11-07T16:08:49.810Z,-64
2022-11-07T16:13:59.220Z,-61
2022-11-07T16:19:16.136Z,-65
2022-11-07T16:24:18.239Z,-65
2022-11-07T16:29:20.180Z,-64
2022-11-07T16:34:22.027Z,-64
2022-11-07T16:39:23.935Z,-71
2022-11-07T16:44:26.624Z,-68
2022-11-07T16:49:32.024Z,-69
2022-11-07T16:54:34.110Z,-68
2022-11-07T16:59:36.199Z,-68
2022-11-07T17:04:38.135Z,-69
2022-11-07T17:09:41.534Z,-69
2022-11-07T17:14:44.897Z,-66
2022-11-07T17:19:46.856Z,-70
2022-11-07T17:24:49.054Z,-70
2022-11-07T17:29:52.548Z,-69
2022-11-07T17:35:18.198Z,-65
2022-11-07T17:40:27.231Z,-67
2022-11-07T17:45:29.209Z,-73
2022-11-07T17:50:31.439Z,-66
2022-11-07T17:55:33.443Z,-66
2022-11-07T18:00:35.997Z,-70
2022-11-07T18:05:37.915Z,-69
2022-11-07T18:10:39.811Z,-72
2022-11-07T18:15:43.472Z,-67
2022-11-07T18:20:52.058Z,-71
2022-11-07T18:26:16.708Z,-69
2022-11-07T18:31:21.154Z,-72
2022-11-07T18:36:23.217Z,-68
2022-11-07T18:41:25.227Z,-68
2022-11-07T18:46:27.228Z,-66
2022-11-07T18:56:46.784Z,-70
2022-11-07T19:01:48.801Z,-69
2022-11-07T19:06:59.730Z,-73
2022-11-07T19:12:01.785Z,-76
2022-11-07T19:17:04.896Z,-73
2022-11-07T19:22:06.789Z,-72
2022-11-07T19:27:08.693Z,-72
2022-11-07T19:32:11.027Z,-71
2022-11-07T19:37:12.920Z,-72
2022-11-07T19:42:17.728Z,-73
2022-11-07T19:47:26.531Z,-73
2022-11-07T19:52:33.520Z,-74
2022-11-07T19:57:35.611Z,-74
2022-11-07T20:02:43.951Z,-74
2022-11-07T20:07:47.999Z,-74
2022-11-07T20:12:54.220Z,-75
2022-11-07T20:17:56.372Z,-74
2022-11-07T20:23:00.256Z,-75
2022-11-07T20:28:02.233Z,-73
2022-11-07T20:33:04.288Z,-72
2022-11-07T20:38:06.443Z,-71
2022-11-07T20:43:08.760Z,-71
2022-11-07T20:48:10.715Z,-74
2022-11-07T20:53:12.780Z,-72
2022-11-07T20:58:14.957Z,-73
2022-11-07T21:03:17.128Z,-74
2022-11-07T21:08:19.247Z,-71
2022-11-07T21:13:22.012Z,-71
2022-11-07T21:18:24.720Z,-71
2022-11-07T21:23:27.091Z,-69
2022-11-07T21:28:29.129Z,-69
2022-11-07T21:33:31.714Z,-70
2022-11-07T21:38:33.657Z,-72
2022-11-07T21:43:36.328Z,-72
2022-11-07T21:48:39.279Z,-72
2022-11-07T21:53:41.873Z,-70
2022-11-07T21:58:44.851Z,-74
2022-11-07T22:09:10.621Z,-73
2022-11-07T22:14:17.900Z,-74
2022-11-07T22:19:20.001Z,-70
2022-11-07T22:24:23.807Z,-70
2022-11-07T22:29:25.805Z,-71
2022-11-07T22:34:27.812Z,-70
2022-11-07T22:39:29.723Z,-69
2022-11-07T22:44:31.766Z,-69
2022-11-07T22:49:33.844Z,-69
2022-11-07T22:54:35.784Z,-70
2022-11-07T22:59:37.625Z,-69
2022-11-07T23:04:39.764Z,-70
2022-11-07T23:09:41.711Z,-72
2022-11-07T23:14:46.616Z,-72
2022-11-07T23:19:53.332Z,-71
2022-11-07T23:24:55.488Z,-72
2022-11-07T23:29:57.598Z,-71
2022-11-07T23:34:59.463Z,-72
2022-11-07T23:40:01.340Z,-72
2022-11-07T23:45:21.856Z,-69
2022-11-07T23:50:42.241Z,-71
2022-11-07T23:55:44.121Z,-69
